createdAt,value
2023-09-08T00:01:57.867Z,10.03
2023-09-08T00:04:26.387Z,9.91
2023-09-08T00:06:54.422Z,9.85
2023-09-08T00:09:22.361Z,9.89
2023-09-08T00:11:50.656Z,9.88
2023-09-08T00:14:19.464Z,9.73
2023-09-08T00:16:50.642Z,9.72
2023-09-08T00:19:19.169Z,9.65
2023-09-08T00:21:47.090Z,9.75
2023-09-08T00:26:41.822Z,9.86
2023-09-08T00:29:09.779Z,9.99
2023-09-08T00:31:40.931Z,9.80
2023-09-08T00:34:09.164Z,9.73
2023-09-08T00:36:40.445Z,9.66
2023-09-08T00:39:11.412Z,9.71
2023-09-08T00:41:39.654Z,9.73
2023-09-08T00:44:10.308Z,9.72
2023-09-08T00:46:38.691Z,9.67
2023-09-08T00:49:07.532Z,9.87
2023-09-08T00:51:36.386Z,9.65
2023-09-08T00:54:04.592Z,9.73
2023-09-08T00:56:33.947Z,9.61
2023-09-08T00:59:03.905Z,9.69
2023-09-08T01:01:33.325Z,9.62
2023-09-08T01:04:03.673Z,9.58
2023-09-08T01:06:34.269Z,9.56
2023-09-08T01:09:02.569Z,9.65
2023-09-08T01:11:35.718Z,9.71
2023-09-08T01:14:04.069Z,9.55
2023-09-08T01:16:32.077Z,9.76
2023-09-08T01:19:01.022Z,9.63
2023-09-08T01:21:41.475Z,9.49
2023-09-08T01:24:45.273Z,9.41
2023-09-08T01:29:43.453Z,9.62
2023-09-08T01:32:12.143Z,9.62
2023-09-08T01:37:09.069Z,9.65
2023-09-08T01:39:37.211Z,9.60
2023-09-08T01:42:05.560Z,9.64
2023-09-08T01:44:37.612Z,9.63
2023-09-08T01:47:09.095Z,9.55
2023-09-08T01:49:37.076Z,9.63
2023-09-08T01:52:06.527Z,9.64
2023-09-08T01:54:37.540Z,9.74
2023-09-08T01:57:06.106Z,9.68
2023-09-08T01:59:34.089Z,9.69
2023-09-08T02:02:02.068Z,9.73
2023-09-08T02:06:57.276Z,9.72
2023-09-08T02:09:36.198Z,9.70
2023-09-08T02:12:05.295Z,9.68
2023-09-08T02:14:33.359Z,9.79
2023-09-08T02:17:01.686Z,9.79
2023-09-08T02:19:30.252Z,9.87
2023-09-08T02:21:58.092Z,9.90
2023-09-08T02:24:26.154Z,9.81
2023-09-08T02:26:56.324Z,9.80
2023-09-08T02:29:24.352Z,10.01
2023-09-08T02:31:54.700Z,9.86
2023-09-08T02:34:23.052Z,9.88
2023-09-08T02:36:52.271Z,9.93
2023-09-08T02:39:21.118Z,10.02
2023-09-08T02:41:49.597Z,9.98
2023-09-08T02:44:20.598Z,9.87
2023-09-08T02:46:48.520Z,9.73
2023-09-08T02:49:16.915Z,9.85
2023-09-08T02:51:45.316Z,9.78
2023-09-08T02:54:13.242Z,9.68
2023-09-08T02:56:41.550Z,9.65
2023-09-08T02:59:10.064Z,9.68
2023-09-08T03:01:42.269Z,9.65
2023-09-08T03:04:13.943Z,9.73
2023-09-08T03:06:45.656Z,9.55
2023-09-08T03:11:41.019Z,9.64
2023-09-08T03:14:09.038Z,9.53
2023-09-08T03:16:37.282Z,9.63
2023-09-08T03:19:05.411Z,9.56
2023-09-08T03:21:33.251Z,9.66
2023-09-08T03:24:01.463Z,9.69
2023-09-08T03:26:29.523Z,9.83
2023-09-08T03:28:57.473Z,9.87
2023-09-08T03:33:52.692Z,9.92
2023-09-08T03:36:20.635Z,9.95
2023-09-08T03:38:48.970Z,10.00
2023-09-08T03:41:17.024Z,9.82
2023-09-08T03:43:45.073Z,10.07
2023-09-08T03:48:40.184Z,10.16
2023-09-08T03:51:08.189Z,10.25
2023-09-08T03:53:36.927Z,10.41
2023-09-08T03:56:05.037Z,10.27
2023-09-08T03:58:32.731Z,10.30
2023-09-08T04:01:01.136Z,10.34
2023-09-08T04:03:29.592Z,10.41
2023-09-08T04:05:58.584Z,10.38
2023-09-08T04:08:26.544Z,10.30
2023-09-08T04:10:55.205Z,10.60
2023-09-08T04:13:23.299Z,10.51
2023-09-08T04:15:51.521Z,10.56
2023-09-08T04:18:20.149Z,10.56
2023-09-08T04:23:16.645Z,10.58
2023-09-08T04:25:44.949Z,10.61
2023-09-08T04:28:12.980Z,10.69
2023-09-08T04:30:41.106Z,10.49
2023-09-08T04:33:09.787Z,10.86
2023-09-08T04:38:05.059Z,10.61
2023-09-08T04:40:33.635Z,10.88
2023-09-08T04:43:02.253Z,10.69
2023-09-08T04:45:31.725Z,10.90
2023-09-08T04:48:01.404Z,10.68
2023-09-08T04:50:31.365Z,10.86
2023-09-08T04:53:02.734Z,11.04
2023-09-08T04:55:31.393Z,10.82
2023-09-08T04:58:02.438Z,10.76
2023-09-08T05:00:30.889Z,10.87
2023-09-08T05:03:00.876Z,11.13
2023-09-08T05:07:57.632Z,11.19
2023-09-08T05:10:29.794Z,11.01
2023-09-08T05:13:02.183Z,10.97
2023-09-08T05:15:35.010Z,10.91
2023-09-08T05:18:04.248Z,10.97
2023-09-08T05:20:32.586Z,10.88
2023-09-08T05:23:01.577Z,10.92
2023-09-08T05:25:30.046Z,11.46
2023-09-08T05:27:58.950Z,11.28
2023-09-08T05:30:27.717Z,11.63
2023-09-08T05:32:59.353Z,11.31
2023-09-08T05:35:28.623Z,11.35
2023-09-08T05:37:57.291Z,11.51
2023-09-08T05:40:27.762Z,11.80
2023-09-08T05:42:57.377Z,11.56
2023-09-08T05:45:27.549Z,11.37
2023-09-08T05:47:56.399Z,11.19
2023-09-08T05:50:26.137Z,11.48
2023-09-08T05:52:56.016Z,11.51
2023-09-08T05:55:26.967Z,11.81
2023-09-08T05:57:56.415Z,12.00
2023-09-08T06:00:27.624Z,11.84
2023-09-08T06:02:57.421Z,12.20
2023-09-08T06:05:27.909Z,12.17
2023-09-08T06:08:06.449Z,12.81
2023-09-08T06:10:40.829Z,13.72
2023-09-08T06:13:10.543Z,14.03
2023-09-08T06:15:40.398Z,13.36
2023-09-08T06:18:08.896Z,13.52
2023-09-08T06:20:48.764Z,14.05
2023-09-08T06:25:51.394Z,12.82
2023-09-08T06:28:24.430Z,12.63
2023-09-08T06:30:57.537Z,13.07
2023-09-08T06:33:27.358Z,12.90
2023-09-08T06:35:56.431Z,13.32
2023-09-08T06:38:28.703Z,13.76
2023-09-08T06:41:00.220Z,13.33
2023-09-08T06:43:31.334Z,13.18
2023-09-08T06:46:06.790Z,12.84
2023-09-08T06:48:35.995Z,12.68
2023-09-08T06:51:06.588Z,12.48
2023-09-08T06:53:37.668Z,12.90
2023-09-08T06:56:13.806Z,13.03
2023-09-08T06:58:43.402Z,12.85
2023-09-08T07:01:16.533Z,13.36
2023-09-08T07:03:51.057Z,13.66
2023-09-08T07:06:25.800Z,13.82
2023-09-08T07:09:00.159Z,13.68
2023-09-08T07:11:36.410Z,13.75
2023-09-08T07:14:08.376Z,13.55
2023-09-08T07:16:40.849Z,13.52
2023-09-08T07:19:13.788Z,13.40
2023-09-08T07:21:43.794Z,13.86
2023-09-08T07:24:13.744Z,14.20
2023-09-08T07:26:45.303Z,13.56
2023-09-08T07:29:18.324Z,14.09
2023-09-08T07:31:53.592Z,13.74
2023-09-08T07:34:26.106Z,13.22
2023-09-08T07:36:58.691Z,13.63
2023-09-08T07:39:33.773Z,13.67
2023-09-08T07:42:10.335Z,13.45
2023-09-08T07:44:41.234Z,13.69
2023-09-08T07:47:14.211Z,13.68
2023-09-08T07:49:49.013Z,13.46
2023-09-08T07:52:25.149Z,13.74
2023-09-08T07:54:57.191Z,13.95
2023-09-08T07:57:33.475Z,13.24
2023-09-08T08:00:06.144Z,13.39
2023-09-08T08:02:50.593Z,13.69
2023-09-08T08:05:21.534Z,15.18
2023-09-08T08:07:54.783Z,14.73
2023-09-08T08:10:28.666Z,15.36
2023-09-08T08:13:01.330Z,14.99
2023-09-08T08:15:42.335Z,15.14
2023-09-08T08:18:21.767Z,14.50
2023-09-08T08:20:51.978Z,14.69
2023-09-08T08:23:23.291Z,14.56
2023-09-08T08:25:55.037Z,14.69
2023-09-08T08:28:28.753Z,14.97
2023-09-08T08:31:00.630Z,15.02
2023-09-08T08:33:36.102Z,14.75
2023-09-08T08:36:06.499Z,14.60
2023-09-08T08:38:40.981Z,14.72
2023-09-08T08:41:13.905Z,14.84
2023-09-08T08:43:52.327Z,13.79
2023-09-08T08:46:24.752Z,13.64
2023-09-08T08:48:57.613Z,13.92
2023-09-08T08:51:32.308Z,13.50
2023-09-08T08:54:14.716Z,13.58
2023-09-08T08:56:46.184Z,13.19
2023-09-08T08:59:15.970Z,12.83
2023-09-08T09:04:18.775Z,12.85
2023-09-08T09:06:54.787Z,12.51
2023-09-08T09:09:31.577Z,12.72
2023-09-08T09:12:01.211Z,12.52
2023-09-08T09:14:37.763Z,12.46
2023-09-08T09:19:48.479Z,12.70
2023-09-08T09:22:25.889Z,12.78
2023-09-08T09:25:04.680Z,12.75
2023-09-08T09:27:33.406Z,13.06
2023-09-08T09:30:08.200Z,13.27
2023-09-08T09:32:38.776Z,13.50
2023-09-08T09:35:10.807Z,13.46
2023-09-08T09:37:43.284Z,13.26
2023-09-08T09:40:13.371Z,13.33
2023-09-08T09:42:47.592Z,12.22
2023-09-08T09:45:19.786Z,11.78
2023-09-08T09:47:53.697Z,11.96
2023-09-08T09:50:35.074Z,12.44
2023-09-08T09:53:17.228Z,12.54
2023-09-08T09:55:50.305Z,12.82
2023-09-08T09:58:21.906Z,13.30
2023-09-08T10:00:56.898Z,13.31
2023-09-08T10:05:56.546Z,13.59
2023-09-08T10:08:25.698Z,13.09
2023-09-08T10:11:08.906Z,13.09
2023-09-08T10:13:51.926Z,13.37
2023-09-08T10:16:28.969Z,13.41
2023-09-08T10:19:08.652Z,13.16
2023-09-08T10:21:51.062Z,13.90
2023-09-08T10:24:41.197Z,13.51
2023-09-08T10:27:14.212Z,14.26
2023-09-08T10:29:45.296Z,14.38
2023-09-08T10:32:19.371Z,13.93
2023-09-08T10:35:02.264Z,13.71
2023-09-08T10:37:42.042Z,13.44
2023-09-08T10:40:29.769Z,12.86
2023-09-08T10:43:12.353Z,11.82
2023-09-08T10:45:42.913Z,11.59
2023-09-08T10:48:17.525Z,11.71
2023-09-08T10:50:49.341Z,11.89
2023-09-08T10:53:24.573Z,11.58
2023-09-08T10:58:35.328Z,11.17
2023-09-08T11:01:09.228Z,11.42
2023-09-08T11:03:40.100Z,11.55
2023-09-08T11:06:10.584Z,12.20
2023-09-08T11:08:52.078Z,12.38
2023-09-08T11:11:23.789Z,11.97
2023-09-08T11:13:59.085Z,11.98
2023-09-08T11:16:36.705Z,12.23
2023-09-08T11:19:11.218Z,12.72
2023-09-08T11:21:42.354Z,12.49
2023-09-08T11:24:16.874Z,12.62
2023-09-08T22:32:20.162Z,8.46
2023-09-08T22:34:47.795Z,8.46
2023-09-08T22:37:16.935Z,7.87
2023-09-08T22:39:44.669Z,8.06
2023-09-08T22:42:12.563Z,7.95
2023-09-08T22:44:40.983Z,8.12
2023-09-08T22:47:15.226Z,7.94
2023-09-08T22:49:58.759Z,8.01
2023-09-08T22:52:26.999Z,7.94
2023-09-08T22:55:02.569Z,7.88
2023-09-08T22:57:37.468Z,8.08
2023-09-08T23:00:07.719Z,7.94
2023-09-08T23:02:35.876Z,7.99
2023-09-08T23:05:04.314Z,7.93
2023-09-08T23:07:32.666Z,7.89
2023-09-08T23:10:00.863Z,7.83
2023-09-08T23:12:31.844Z,7.88
2023-09-08T23:15:00.102Z,7.91
2023-09-08T23:17:28.314Z,7.96
2023-09-08T23:19:56.815Z,7.91
2023-09-08T23:22:25.054Z,7.89
2023-09-08T23:24:52.980Z,7.83
2023-09-08T23:27:20.861Z,7.78
2023-09-08T23:29:49.237Z,7.73
2023-09-08T23:32:17.185Z,7.89
2023-09-08T23:34:45.098Z,7.76
2023-09-08T23:39:40.575Z,7.62
2023-09-08T23:42:08.722Z,7.60
2023-09-08T23:47:05.260Z,7.67
2023-09-08T23:49:36.320Z,7.64
2023-09-08T23:52:04.881Z,7.60
2023-09-08T23:54:36.048Z,7.64
2023-09-08T23:57:05.700Z,7.61
2023-09-08T23:59:36.427Z,7.60
